createdAt,value
2017-08-28T00:00:39.827Z,52.10
2017-08-28T00:03:08.668Z,53.00
2017-08-28T00:05:36.747Z,53.10
2017-08-28T00:08:04.850Z,53.80
2017-08-28T00:10:32.920Z,52.00
2017-08-28T00:13:01.754Z,51.30
2017-08-28T00:15:30.991Z,51.30
2017-08-28T00:17:59.067Z,50.80
2017-08-28T00:20:27.531Z,51.30
2017-08-28T00:22:55.630Z,52.00
2017-08-28T00:25:24.481Z,51.00
2017-08-28T00:27:52.566Z,52.40
2017-08-28T00:30:20.647Z,52.00
2017-08-28T00:32:49.526Z,50.40
2017-08-28T00:35:17.995Z,50.70
2017-08-28T00:37:46.067Z,51.10
2017-08-28T00:40:14.162Z,50.30
2017-08-28T00:42:42.235Z,50.70
2017-08-28T00:45:10.741Z,49.90
2017-08-28T00:47:40.317Z,50.40
2017-08-28T00:50:08.478Z,49.80
2017-08-28T00:52:36.926Z,50.40
2017-08-28T00:55:05.786Z,49.80
2017-08-28T00:57:34.647Z,51.00
2017-08-28T01:00:02.747Z,50.40
2017-08-28T01:02:31.326Z,49.30
2017-08-28T01:04:59.427Z,49.20
2017-08-28T01:07:27.502Z,49.30
2017-08-28T01:09:56.491Z,49.30
2017-08-28T01:12:24.587Z,49.50
2017-08-28T01:14:53.067Z,48.80
2017-08-28T01:17:21.160Z,49.50
2017-08-28T01:19:49.630Z,49.10
2017-08-28T01:22:18.126Z,49.40
2017-08-28T01:24:46.607Z,49.90
2017-08-28T01:27:15.451Z,49.50
2017-08-28T01:29:43.543Z,49.50
2017-08-28T01:32:11.695Z,49.50
2017-08-28T01:34:40.168Z,48.60
2017-08-28T01:37:09.006Z,48.90
2017-08-28T01:39:37.108Z,48.40
2017-08-28T01:42:05.594Z,48.10
2017-08-28T01:44:33.672Z,48.70
2017-08-28T01:47:01.771Z,49.00
2017-08-28T01:49:30.238Z,49.10
2017-08-28T01:51:58.350Z,50.10
2017-08-28T01:54:26.438Z,51.20
2017-08-28T01:56:54.826Z,48.60
2017-08-28T01:59:22.948Z,50.50
2017-08-28T02:01:51.027Z,50.50
2017-08-28T02:04:19.863Z,50.20
2017-08-28T02:06:48.377Z,49.50
2017-08-28T02:09:16.447Z,50.30
2017-08-28T02:11:44.527Z,51.30
2017-08-28T02:14:13.386Z,50.50
2017-08-28T02:16:42.227Z,49.20
2017-08-28T02:19:10.727Z,50.70
2017-08-28T02:21:38.822Z,52.40
2017-08-28T02:24:06.899Z,50.00
2017-08-28T02:26:35.469Z,50.20
2017-08-28T02:29:03.926Z,50.30
2017-08-28T02:31:32.767Z,49.90
2017-08-28T02:34:00.847Z,50.70
2017-08-28T02:36:29.707Z,50.80
2017-08-28T02:38:57.787Z,50.00
2017-08-28T02:41:25.895Z,50.40
2017-08-28T02:43:53.977Z,51.00
2017-08-28T02:46:22.448Z,49.60
2017-08-28T02:48:50.946Z,49.30
2017-08-28T02:51:19.431Z,49.30
2017-08-28T02:53:47.507Z,49.40
2017-08-28T02:56:16.383Z,50.80
2017-08-28T02:58:44.862Z,50.40
2017-08-28T03:01:13.703Z,50.70
2017-08-28T03:03:41.798Z,49.80
2017-08-28T03:06:10.639Z,50.30
2017-08-28T03:08:38.736Z,49.00
2017-08-28T03:11:06.835Z,50.00
2017-08-28T03:13:35.307Z,50.40
2017-08-28T03:16:03.442Z,50.00
2017-08-28T03:18:31.515Z,50.00
2017-08-28T03:20:59.590Z,49.50
2017-08-28T03:23:27.691Z,48.70
2017-08-28T03:25:55.795Z,49.20
2017-08-28T03:28:23.891Z,48.50
2017-08-28T03:30:51.968Z,49.00
2017-08-28T03:33:20.078Z,48.70
2017-08-28T03:35:48.154Z,49.40
2017-08-28T03:38:16.234Z,49.20
2017-08-28T03:40:44.327Z,48.20
2017-08-28T03:43:12.402Z,49.10
2017-08-28T03:45:40.895Z,49.00
2017-08-28T03:48:08.971Z,48.50
2017-08-28T03:50:37.075Z,48.20
2017-08-28T03:53:05.906Z,48.70
2017-08-28T03:55:33.982Z,49.00
2017-08-28T03:58:02.078Z,49.10
2017-08-28T04:00:30.159Z,49.10
2017-08-28T04:02:59.299Z,49.10
2017-08-28T04:05:28.173Z,50.20
2017-08-28T04:07:56.225Z,49.90
2017-08-28T04:10:24.322Z,50.30
2017-08-28T04:12:52.403Z,50.00
2017-08-28T04:15:20.973Z,51.30
2017-08-28T04:17:49.032Z,50.70
2017-08-28T04:20:17.131Z,50.80
2017-08-28T04:22:45.242Z,51.70
2017-08-28T04:25:14.088Z,51.30
2017-08-28T04:27:42.167Z,50.50
2017-08-28T04:30:10.663Z,52.10
2017-08-28T04:32:38.751Z,51.40
2017-08-28T04:35:07.631Z,50.90
2017-08-28T04:37:35.722Z,50.40
2017-08-28T04:40:04.558Z,50.60
2017-08-28T04:42:33.055Z,50.80
2017-08-28T04:45:01.126Z,50.80
2017-08-28T04:47:29.230Z,52.30
2017-08-28T04:49:57.303Z,51.40
2017-08-28T04:52:25.770Z,52.00
2017-08-28T04:54:53.862Z,51.50
2017-08-28T04:57:22.351Z,51.70
2017-08-28T04:59:50.820Z,51.30
2017-08-28T05:02:19.311Z,52.80
2017-08-28T05:04:47.387Z,52.10
2017-08-28T05:07:15.879Z,51.90
2017-08-28T05:09:43.981Z,52.10
2017-08-28T05:12:12.058Z,52.90
2017-08-28T05:14:40.527Z,51.70
2017-08-28T05:17:09.019Z,51.80
2017-08-28T05:19:37.100Z,52.80
2017-08-28T05:22:05.586Z,51.90
2017-08-28T05:24:33.659Z,52.50
2017-08-28T05:27:01.763Z,53.40
2017-08-28T05:29:30.606Z,53.00
2017-08-28T05:31:59.087Z,53.70
2017-08-28T05:34:27.946Z,53.80
2017-08-28T05:36:56.128Z,52.60
2017-08-28T05:39:24.599Z,52.60
2017-08-28T05:41:52.704Z,53.10
2017-08-28T05:44:21.547Z,53.50
2017-08-28T05:46:49.627Z,54.00
2017-08-28T05:49:18.490Z,54.30
2017-08-28T05:51:47.330Z,53.60
2017-08-28T05:54:15.822Z,53.40
2017-08-28T05:56:44.295Z,54.20
2017-08-28T05:59:12.787Z,54.00
2017-08-28T06:01:41.286Z,54.40
2017-08-28T06:04:09.467Z,53.20
2017-08-28T06:06:38.441Z,54.20
2017-08-28T06:09:07.235Z,53.20
2017-08-28T06:11:35.326Z,52.30
2017-08-28T06:14:04.296Z,53.10
2017-08-28T06:16:33.095Z,52.40
2017-08-28T06:19:01.587Z,50.60
2017-08-28T06:21:29.739Z,51.60
2017-08-28T06:23:57.774Z,50.80
2017-08-28T06:26:26.705Z,50.80
2017-08-28T06:28:54.767Z,51.10
2017-08-28T06:31:23.240Z,50.10
2017-08-28T06:33:51.343Z,50.10
2017-08-28T06:36:19.823Z,49.80
2017-08-28T06:38:47.908Z,49.70
2017-08-28T06:41:16.012Z,48.60
2017-08-28T06:43:44.167Z,47.80
2017-08-28T06:46:13.006Z,46.10
2017-08-28T06:48:41.117Z,46.80
2017-08-28T06:51:09.191Z,47.00
2017-08-28T06:53:37.266Z,46.00
2017-08-28T06:56:05.759Z,47.00
2017-08-28T06:58:34.251Z,46.10
2017-08-28T07:01:02.326Z,45.10
2017-08-28T07:03:30.430Z,44.90
2017-08-28T07:05:58.503Z,45.50
2017-08-28T07:08:26.600Z,45.60
2017-08-28T07:10:55.071Z,45.10
2017-08-28T07:13:23.167Z,45.20
2017-08-28T07:15:52.012Z,43.60
2017-08-28T07:18:20.503Z,44.00
2017-08-28T07:20:48.603Z,43.70
2017-08-28T07:23:17.487Z,44.20
2017-08-28T07:25:45.575Z,42.50
2017-08-28T07:28:13.647Z,41.80
2017-08-28T07:30:41.718Z,42.10
2017-08-28T07:33:09.811Z,41.70
2017-08-28T07:35:37.882Z,41.40
2017-08-28T07:38:05.983Z,41.40
2017-08-28T07:40:34.087Z,40.90
2017-08-28T07:43:02.166Z,41.70
2017-08-28T07:45:30.655Z,40.10
2017-08-28T07:47:58.751Z,39.80
2017-08-28T07:50:27.615Z,41.90
2017-08-28T07:52:55.730Z,41.10
2017-08-28T07:55:24.199Z,39.30
2017-08-28T07:57:52.279Z,39.80
2017-08-28T08:00:21.127Z,38.60
2017-08-28T08:02:49.202Z,39.20
2017-08-28T08:05:17.720Z,37.00
2017-08-28T08:07:46.183Z,38.80
2017-08-28T08:10:14.655Z,38.10
2017-08-28T08:12:42.751Z,36.20
2017-08-28T08:15:10.846Z,35.70
2017-08-28T08:17:38.922Z,36.90
2017-08-28T08:20:07.419Z,37.00
2017-08-28T08:22:35.495Z,35.40
2017-08-28T08:25:03.615Z,34.40
2017-08-28T08:27:31.686Z,36.60
2017-08-28T08:29:59.763Z,35.70
2017-08-28T08:32:28.631Z,36.50
2017-08-28T08:34:56.714Z,35.00
2017-08-28T08:37:24.774Z,35.30
2017-08-28T08:39:52.879Z,39.70
2017-08-28T08:42:21.723Z,34.70
2017-08-28T08:44:50.194Z,32.60
2017-08-28T08:47:18.299Z,33.00
2017-08-28T08:49:46.374Z,34.00
2017-08-28T08:52:14.450Z,33.10
2017-08-28T08:54:42.939Z,31.90
2017-08-28T08:57:11.018Z,31.90
2017-08-28T08:59:41.016Z,32.00
2017-08-28T09:02:09.052Z,32.20
2017-08-28T09:04:37.147Z,31.60
2017-08-28T09:07:05.259Z,31.60
2017-08-28T09:09:33.354Z,29.80
2017-08-28T09:12:01.435Z,31.00
2017-08-28T09:14:29.940Z,30.80
2017-08-28T09:16:58.018Z,30.00
2017-08-28T09:19:26.111Z,29.70
2017-08-28T09:21:54.188Z,29.40
2017-08-28T09:24:22.829Z,28.70
2017-08-28T09:26:51.258Z,29.10
2017-08-28T09:29:19.337Z,29.00
2017-08-28T09:31:47.422Z,29.10
2017-08-28T09:34:15.498Z,28.90
2017-08-28T09:36:44.006Z,29.60
2017-08-28T09:39:12.086Z,28.80
2017-08-28T09:41:40.179Z,27.40
2017-08-28T09:44:08.253Z,28.30
2017-08-28T09:46:36.755Z,26.90
2017-08-28T09:49:05.599Z,28.20
2017-08-28T09:51:33.675Z,28.10
2017-08-28T09:54:01.783Z,27.70
2017-08-28T09:56:30.323Z,26.10
2017-08-28T09:58:58.354Z,26.10
2017-08-28T10:01:27.231Z,25.50
2017-08-28T10:03:55.306Z,25.40
2017-08-28T10:06:23.839Z,25.70
2017-08-28T10:08:51.899Z,25.10
2017-08-28T10:11:19.975Z,25.10
2017-08-28T10:13:48.074Z,25.70
2017-08-28T10:16:16.230Z,25.20
2017-08-28T10:18:44.286Z,24.70
2017-08-28T10:21:12.399Z,25.70
2017-08-28T10:23:41.260Z,25.10
2017-08-28T10:26:09.336Z,25.80
2017-08-28T10:28:37.435Z,25.60
2017-08-28T10:31:05.511Z,23.10
2017-08-28T10:33:33.587Z,23.50
2017-08-28T10:36:01.689Z,23.60
2017-08-28T10:38:29.798Z,23.10
2017-08-28T10:40:57.878Z,23.90
2017-08-28T10:43:27.351Z,24.20
2017-08-28T10:45:55.451Z,23.80
2017-08-28T10:48:23.522Z,22.40
2017-08-28T10:50:51.635Z,22.80
2017-08-28T10:53:19.706Z,21.50
2017-08-28T10:55:47.849Z,23.40
2017-08-28T10:58:15.930Z,21.40
2017-08-28T11:00:44.041Z,21.90
2017-08-28T11:03:12.135Z,21.10
2017-08-28T11:05:40.211Z,20.90
2017-08-28T11:08:08.300Z,20.90
2017-08-28T11:10:36.395Z,20.90
2017-08-28T11:13:04.470Z,20.40
2017-08-28T11:15:32.578Z,19.80
2017-08-28T11:18:01.051Z,20.20
2017-08-28T11:20:29.126Z,18.20
2017-08-28T11:22:57.240Z,19.50
2017-08-28T11:25:25.727Z,18.50
2017-08-28T11:27:53.802Z,18.80
2017-08-28T11:30:21.895Z,18.70
2017-08-28T11:32:50.011Z,19.10
2017-08-28T11:35:18.087Z,18.70
2017-08-28T11:37:46.164Z,18.80
2017-08-28T11:40:14.274Z,18.40
2017-08-28T11:42:42.338Z,18.90
2017-08-28T11:45:10.847Z,18.60
2017-08-28T11:47:39.323Z,19.40
2017-08-28T11:50:07.398Z,18.50
2017-08-28T11:52:35.495Z,19.10
2017-08-28T11:55:03.590Z,18.00
2017-08-28T11:57:31.695Z,18.50
2017-08-28T11:59:59.771Z,18.10
2017-08-28T12:02:27.959Z,17.80
2017-08-28T12:04:56.060Z,18.60
2017-08-28T12:07:24.534Z,16.70
2017-08-28T12:09:52.670Z,17.00
2017-08-28T12:12:20.768Z,16.30
2017-08-28T12:14:48.838Z,16.40
2017-08-28T12:17:16.934Z,18.20
2017-08-28T12:19:45.046Z,16.60
2017-08-28T12:22:14.168Z,14.60
2017-08-28T12:24:42.247Z,15.10
2017-08-28T12:27:10.743Z,16.20
2017-08-28T12:29:38.818Z,16.60
2017-08-28T12:32:07.683Z,16.40
2017-08-28T12:34:35.759Z,16.80
2017-08-28T12:37:03.863Z,16.00
2017-08-28T12:39:31.983Z,15.90
2017-08-28T12:42:00.059Z,15.20
2017-08-28T12:44:28.531Z,14.90
2017-08-28T12:46:56.631Z,14.60
2017-08-28T12:49:24.729Z,15.60
2017-08-28T12:51:52.807Z,14.80
2017-08-28T12:54:20.927Z,13.70
2017-08-28T12:56:49.399Z,14.10
2017-08-28T12:59:17.472Z,14.00
2017-08-28T13:01:45.579Z,14.10
2017-08-28T13:04:13.655Z,14.10
2017-08-28T13:06:41.736Z,14.90
2017-08-28T13:09:10.598Z,14.90
2017-08-28T13:11:38.676Z,14.30
2017-08-28T13:14:07.166Z,14.70
2017-08-28T13:16:36.007Z,14.10
2017-08-28T13:19:04.093Z,14.30
2017-08-28T13:21:32.181Z,14.10
2017-08-28T13:24:00.656Z,13.50
2017-08-28T13:26:28.827Z,14.40
2017-08-28T13:28:56.867Z,14.90
2017-08-28T13:31:24.963Z,14.30
2017-08-28T13:33:53.039Z,13.40
2017-08-28T13:36:21.629Z,12.80
2017-08-28T13:38:49.682Z,12.80
2017-08-28T13:41:17.787Z,14.70
2017-08-28T13:43:45.882Z,14.10
2017-08-28T13:46:13.954Z,14.50
2017-08-28T13:48:42.816Z,14.10
2017-08-28T13:51:10.890Z,14.70
2017-08-28T13:53:38.994Z,14.40
2017-08-28T13:56:07.861Z,13.90
2017-08-28T13:58:35.935Z,13.90
2017-08-28T14:01:04.042Z,13.00
2017-08-28T14:03:32.168Z,12.70
2017-08-28T14:06:00.235Z,12.60
2017-08-28T14:08:28.339Z,12.90
2017-08-28T14:10:56.450Z,13.80
2017-08-28T14:13:24.530Z,14.30
2017-08-28T14:15:52.615Z,14.80
2017-08-28T14:18:20.719Z,15.30
2017-08-28T14:20:48.814Z,15.80
2017-08-28T14:23:17.653Z,15.10
2017-08-28T14:25:45.746Z,14.80
2017-08-28T14:28:13.831Z,13.90
2017-08-28T14:30:41.927Z,12.90
2017-08-28T14:33:10.003Z,13.40
2017-08-28T14:35:38.099Z,12.70
2017-08-28T14:38:06.179Z,13.40
2017-08-28T14:40:34.283Z,12.60
2017-08-28T14:43:02.755Z,12.80
2017-08-28T14:45:30.831Z,12.20
2017-08-28T14:47:58.947Z,12.70
2017-08-28T14:50:27.023Z,13.00
2017-08-28T14:52:55.094Z,12.40
2017-08-28T14:55:23.200Z,13.20
2017-08-28T14:57:51.275Z,13.60
2017-08-28T15:00:19.343Z,12.60
2017-08-28T15:02:47.447Z,11.20
2017-08-28T15:05:15.523Z,11.60
2017-08-28T15:07:43.602Z,13.10
2017-08-28T15:10:11.704Z,13.70
2017-08-28T15:12:39.795Z,12.60
2017-08-28T15:15:07.875Z,13.20
2017-08-28T15:17:35.970Z,12.80
2017-08-28T15:20:04.070Z,12.50
2017-08-28T15:22:32.149Z,12.50
2017-08-28T15:25:00.250Z,13.50
2017-08-28T15:27:28.339Z,13.30
2017-08-28T15:29:56.407Z,13.70
2017-08-28T15:32:24.503Z,13.80
2017-08-28T15:34:52.599Z,13.00
2017-08-28T15:37:20.706Z,13.20
2017-08-28T15:39:48.778Z,13.60
2017-08-28T15:42:16.898Z,13.60
2017-08-28T15:44:44.995Z,13.80
2017-08-28T15:47:13.091Z,13.10
2017-08-28T15:49:42.011Z,13.00
2017-08-28T15:52:10.847Z,13.70
2017-08-28T15:54:38.973Z,13.70
2017-08-28T15:57:07.403Z,15.10
2017-08-28T15:59:35.515Z,16.00
2017-08-28T16:02:03.596Z,16.50
2017-08-28T16:04:31.667Z,15.80
2017-08-28T16:06:59.775Z,15.40
2017-08-28T16:09:27.854Z,15.50
2017-08-28T16:11:55.927Z,16.10
2017-08-28T16:14:24.022Z,17.40
2017-08-28T16:16:52.862Z,19.00
2017-08-28T16:19:20.959Z,18.90
2017-08-28T16:21:49.041Z,19.10
2017-08-28T16:24:17.210Z,19.40
2017-08-28T16:26:46.055Z,19.50
2017-08-28T16:29:14.130Z,19.60
2017-08-28T16:31:42.235Z,19.80
2017-08-28T16:34:10.311Z,20.70
2017-08-28T16:36:39.165Z,21.70
2017-08-28T16:39:07.255Z,22.00
2017-08-28T16:41:35.331Z,22.30
2017-08-28T16:44:03.798Z,22.80
2017-08-28T16:46:32.658Z,23.60
2017-08-28T16:49:00.775Z,24.70
2017-08-28T16:51:28.850Z,25.30
2017-08-28T16:53:56.931Z,25.70
2017-08-28T16:56:25.891Z,27.10
2017-08-28T16:58:54.347Z,27.70
2017-08-28T17:01:22.426Z,27.90
2017-08-28T17:03:50.504Z,27.30
2017-08-28T17:06:18.654Z,28.40
2017-08-28T17:08:46.727Z,28.30
2017-08-28T17:11:14.810Z,28.50
2017-08-28T17:13:42.922Z,29.30
2017-08-28T17:16:11.011Z,29.60
2017-08-28T17:18:39.495Z,29.30
2017-08-28T17:21:07.598Z,29.40
2017-08-28T17:23:56.434Z,29.50
2017-08-28T17:26:25.384Z,29.80
2017-08-28T17:28:53.431Z,30.80
2017-08-28T17:31:21.543Z,31.40
2017-08-28T17:33:49.995Z,34.30
2017-08-28T17:36:18.092Z,35.20
2017-08-28T17:38:46.230Z,35.70
2017-08-28T17:41:14.307Z,36.50
2017-08-28T17:43:42.391Z,37.20
2017-08-28T17:46:10.891Z,37.50
2017-08-28T17:48:38.966Z,37.80
2017-08-28T17:51:07.107Z,38.10
2017-08-28T17:53:35.199Z,38.60
2017-08-28T17:56:03.275Z,38.90
2017-08-28T17:58:31.363Z,39.60
2017-08-28T18:00:59.460Z,39.60
2017-08-28T18:03:27.540Z,40.10
2017-08-28T18:05:56.031Z,40.30
2017-08-28T18:08:24.871Z,41.40
2017-08-28T18:10:52.962Z,40.90
2017-08-28T18:13:21.039Z,40.80
2017-08-28T18:15:49.135Z,41.20
2017-08-28T18:18:17.219Z,41.90
2017-08-28T18:20:45.323Z,41.30
2017-08-28T18:23:13.435Z,41.40
2017-08-28T18:25:41.906Z,41.90
2017-08-28T18:28:09.983Z,42.40
2017-08-28T18:30:38.087Z,42.80
2017-08-28T18:33:06.163Z,43.40
2017-08-28T18:35:34.239Z,43.70
2017-08-28T18:38:02.375Z,44.20
2017-08-28T18:40:30.438Z,44.10
2017-08-28T18:42:58.530Z,44.00
2017-08-28T18:45:27.375Z,44.20
2017-08-28T18:47:55.471Z,44.80
2017-08-28T18:50:23.942Z,44.70
2017-08-28T18:52:52.097Z,45.00
2017-08-28T18:55:20.535Z,45.20
2017-08-28T18:57:48.610Z,44.50
2017-08-28T19:00:16.723Z,44.20
2017-08-28T19:02:44.798Z,44.60
2017-08-28T19:05:12.867Z,44.40
2017-08-28T19:07:41.887Z,44.50
2017-08-28T19:10:09.982Z,44.50
2017-08-28T19:12:38.059Z,44.50
2017-08-28T19:15:06.166Z,44.40
2017-08-28T19:17:35.035Z,44.50
2017-08-28T19:20:05.430Z,45.90
2017-08-28T19:22:33.506Z,45.90
2017-08-28T19:25:01.588Z,45.20
2017-08-28T19:27:29.684Z,45.10
2017-08-28T19:29:57.787Z,45.10
2017-08-28T19:32:25.862Z,45.20
2017-08-28T19:34:53.935Z,45.90
2017-08-28T19:37:23.439Z,45.70
2017-08-28T19:39:51.542Z,46.30
2017-08-28T19:42:19.623Z,45.50
2017-08-28T19:44:47.707Z,46.50
2017-08-28T19:47:16.570Z,46.30
2017-08-28T19:49:44.645Z,46.10
2017-08-28T19:52:13.135Z,45.70
2017-08-28T19:54:41.626Z,45.30
2017-08-28T19:57:10.467Z,45.40
2017-08-28T19:59:38.554Z,45.00
2017-08-28T20:02:07.163Z,44.80
2017-08-28T20:04:35.265Z,44.50
2017-08-28T20:07:03.335Z,44.40
2017-08-28T20:09:31.430Z,44.50
2017-08-28T20:11:59.512Z,44.70
2017-08-28T20:14:27.607Z,44.80
2017-08-28T20:16:56.098Z,45.10
2017-08-28T20:19:24.174Z,44.80
2017-08-28T20:21:52.287Z,45.50
2017-08-28T20:24:20.363Z,45.60
2017-08-28T20:26:48.839Z,45.80
2017-08-28T20:29:16.943Z,45.90
2017-08-28T20:31:45.886Z,45.90
2017-08-28T20:34:14.728Z,45.70
2017-08-28T20:36:43.599Z,45.10
2017-08-28T20:39:11.675Z,45.40
2017-08-28T20:41:39.771Z,45.10
2017-08-28T20:44:07.865Z,44.60
2017-08-28T20:46:36.344Z,41.00
2017-08-28T20:49:04.442Z,44.10
2017-08-28T20:51:32.542Z,44.80
2017-08-28T20:54:00.617Z,45.60
2017-08-28T20:56:29.517Z,45.10
2017-08-28T20:58:57.579Z,44.60
2017-08-28T21:01:25.768Z,44.40
2017-08-28T21:03:53.826Z,43.80
2017-08-28T21:06:22.671Z,45.60
2017-08-28T21:08:51.554Z,45.10
2017-08-28T21:11:19.633Z,44.00
2017-08-28T21:13:47.706Z,43.50
2017-08-28T21:16:15.824Z,43.40
2017-08-28T21:18:43.918Z,44.60
2017-08-28T21:21:12.809Z,43.90
2017-08-28T21:23:40.874Z,44.20
2017-08-28T21:26:08.947Z,44.60
2017-08-28T21:28:37.830Z,44.60
2017-08-28T21:31:05.887Z,44.50
2017-08-28T21:33:34.398Z,44.00
2017-08-28T21:36:03.239Z,44.10
2017-08-28T21:38:31.315Z,44.40
2017-08-28T21:40:59.415Z,44.50
2017-08-28T21:43:27.515Z,44.70
2017-08-28T21:45:55.595Z,44.90
2017-08-28T21:48:24.063Z,44.90
2017-08-28T21:50:52.171Z,44.40
2017-08-28T21:53:20.638Z,45.70
2017-08-28T21:55:49.131Z,45.60
2017-08-28T21:58:17.234Z,44.90
2017-08-28T22:00:45.315Z,44.80
2017-08-28T22:03:13.413Z,44.50
2017-08-28T22:05:41.507Z,45.20
2017-08-28T22:08:09.615Z,45.40
2017-08-28T22:10:37.683Z,45.00
2017-08-28T22:13:05.759Z,44.60
2017-08-28T22:15:34.665Z,45.20
2017-08-28T22:18:03.134Z,45.20
2017-08-28T22:20:31.216Z,45.90
2017-08-28T22:22:59.307Z,45.00
2017-08-28T22:25:27.799Z,45.80
2017-08-28T22:27:56.267Z,45.40
2017-08-28T22:30:24.363Z,45.60
2017-08-28T22:32:52.838Z,45.40
2017-08-28T22:35:20.951Z,45.40
2017-08-28T22:37:49.799Z,45.10
2017-08-28T22:40:18.639Z,44.90
2017-08-28T22:42:47.151Z,45.60
2017-08-28T22:45:15.643Z,45.80
2017-08-28T22:47:44.528Z,45.30
2017-08-28T22:50:12.588Z,46.40
2017-08-28T22:52:40.662Z,46.60
2017-08-28T22:55:09.155Z,47.80
2017-08-28T22:57:37.231Z,47.90
2017-08-28T23:00:06.099Z,47.70
2017-08-28T23:02:34.242Z,47.90
2017-08-28T23:05:02.319Z,48.10
2017-08-28T23:07:30.395Z,49.10
2017-08-28T23:09:58.498Z,48.50
2017-08-28T23:12:26.589Z,48.80
2017-08-28T23:14:54.651Z,49.20
2017-08-28T23:17:22.747Z,49.20
2017-08-28T23:19:51.214Z,49.10
2017-08-28T23:22:19.311Z,49.60
2017-08-28T23:24:47.387Z,49.00
2017-08-28T23:27:15.882Z,48.90
2017-08-28T23:29:43.959Z,48.30
2017-08-28T23:32:12.831Z,47.80
2017-08-28T23:34:40.907Z,47.20
2017-08-28T23:37:08.983Z,47.30
2017-08-28T23:39:37.099Z,47.60
2017-08-28T23:42:05.571Z,47.40
2017-08-28T23:44:33.671Z,47.90
2017-08-28T23:47:02.507Z,47.80
2017-08-28T23:49:31.035Z,47.30
2017-08-28T23:51:59.099Z,47.10
2017-08-28T23:54:27.235Z,46.70
2017-08-28T23:56:55.311Z,46.70
2017-08-28T23:59:23.419Z,46.70
